Latest Weather Observations for Milingimbi

IDD60801

Issued at 3:05 pm CST Saturday 20 September 2014 (issued every 30 minutes, with the page automatically refreshed every 10 minutes)

About weather observations | Map of weather stations | Latest weather observations for NT | Other Formats
Station Details ID: 014404 Name: MILINGIMBI AIRPORT Lat: -12.09 Lon: 134.89 Height: 15.0 m
Data from the previous 72 hours. | See also: Recent months at Milingimbi
Date/Time
CST
Temp
°C
App
Temp
°C
Dew
Point
Rel
Hum
%
Delta-T
°C
Wind Press
QNH
hPa
Press
MSL
hPa
Rain
since 9 am
mm
Dir
 
Spd
km/h
Gust
km/h
Spd
kts
Gust
kts
20/03:00pm 30.3 30.8 19.3 51 7.2 N 15 24 8 13 1011.5 1011.4 0.0
20/02:30pm 29.9 31.6 21.0 59 5.9 N 13 20 7 11 1012.0 - 0.0
20/02:00pm 30.0 31.1 20.5 56 6.3 N 15 22 8 12 1012.6 - 0.0
20/01:30pm 30.3 31.5 19.9 53 6.8 N 13 20 7 11 1012.9 - 0.0
20/01:00pm 31.1 30.4 16.3 41 9.3 ENE 15 28 8 15 1013.5 - 0.0
20/12:30pm 30.8 30.8 18.2 47 8.1 ENE 15 22 8 12 1014.2 - 0.0
20/12:00pm 30.2 30.0 16.6 44 8.5 ENE 13 20 7 11 1014.8 1014.7 0.0
20/11:30am 30.2 29.9 17.3 46 8.2 NE 15 24 8 13 1015.4 - 0.0
20/11:00am 30.2 30.0 16.6 44 8.5 ENE 13 20 7 11 1015.5 - 0.0
20/10:30am 30.1 30.0 16.9 45 8.3 E 13 20 7 11 1015.8 - 0.0
20/10:00am 28.7 29.4 17.9 52 6.9 E 11 17 6 9 1015.9 - 0.0
20/09:30am 28.4 28.2 17.6 52 6.8 ESE 15 22 8 12 1015.7 - 0.0
20/09:00am 27.3 28.1 19.1 61 5.3 E 13 19 7 10 1015.6 1015.5 0.0
20/08:30am 26.5 27.7 19.9 67 4.3 E 13 20 7 11 1015.5 - 0.0
20/08:00am 25.2 27.5 20.7 76 2.9 E 9 15 5 8 1015.5 - 0.0
20/07:30am 22.3 24.0 18.5 79 2.4 ESE 7 9 4 5 1015.3 - 0.0
20/07:00am 19.7 20.9 16.9 84 1.7 ESE 6 9 3 5 1014.9 - 0.0
20/06:30am 18.5 19.4 16.1 86 1.4 SE 6 9 3 5 1014.2 - 0.0
20/06:00am 18.5 19.3 15.9 85 1.5 SE 6 7 3 4 1013.8 1013.7 0.0
20/05:30am 18.5 20.4 15.7 84 1.7 CALM 0 0 0 0 1013.5 - 0.0
20/05:00am 18.5 19.1 15.2 81 1.9 ESE 6 6 3 3 1013.0 - 0.0
20/04:30am 18.2 18.9 14.5 79 2.1 ESE 4 6 2 3 1012.8 - 0.0
20/04:00am 18.6 18.9 14.5 77 2.4 SE 6 7 3 4 1012.7 - 0.0
20/03:30am 19.3 20.5 14.8 75 2.6 SE 2 6 1 3 1012.8 - 0.0
20/03:00am 19.5 21.1 15.0 75 2.6 CALM 0 0 0 0 1013.0 1012.9 0.0
20/02:30am 20.0 20.8 14.8 72 3.0 SSE 4 6 2 3 1013.1 - 0.0
20/02:00am 21.0 21.9 15.1 69 3.5 S 4 7 2 4 1013.4 - 0.0
20/01:30am 22.2 23.1 16.7 71 3.4 SSE 7 9 4 5 1013.7 - 0.0
20/01:00am 23.1 24.1 16.9 68 3.8 ESE 7 9 4 5 1013.9 - 0.0
20/12:30am 23.4 24.3 16.7 66 4.1 SE 7 11 4 6 1014.2 - 0.0
20/12:00am 24.8 25.5 17.0 62 4.8 E 9 11 5 6 1014.5 1014.4 0.0
 
Date/Time
CST
Temp
°C
App
Temp
°C
Dew
Point
Rel
Hum
%
Delta-T
°C
Wind Press
QNH
hPa
Press
MSL
hPa
Rain
since 9 am
mm
Dir
 
Spd
km/h
Gust
km/h
Spd
kts
Gust
kts
19/11:30pm 24.4 25.3 16.6 61 4.8 ESE 7 11 4 6 1014.7 - 0.0
19/11:00pm 24.9 25.6 17.1 62 4.8 ESE 9 13 5 7 1014.7 - 0.0
19/10:30pm 25.4 26.7 17.6 62 4.9 E 7 11 4 6 1014.7 - 0.0
19/10:00pm 25.4 27.4 19.1 68 4.0 E 7 11 4 6 1014.8 - 0.0
19/09:30pm 25.7 27.7 19.1 67 4.2 ENE 7 11 4 6 1014.7 - 0.0
19/09:00pm 26.2 28.0 18.8 63 4.7 E 7 11 4 6 1014.6 1014.5 0.0
19/08:30pm 26.7 28.2 18.8 62 5.1 E 9 13 5 7 1014.2 - 0.0
19/08:00pm 27.0 28.4 18.6 60 5.4 E 9 19 5 10 1013.8 - 0.0
19/07:30pm 27.4 28.3 18.4 58 5.7 ENE 11 19 6 10 1013.2 - 0.0
19/07:00pm 27.6 28.0 17.2 53 6.5 ENE 11 17 6 9 1012.6 - 0.0
19/06:30pm 28.0 27.5 16.9 51 6.9 ENE 15 22 8 12 1012.2 - 0.0
19/06:00pm 28.7 29.0 16.9 48 7.4 ENE 11 22 6 12 1012.1 1012.0 0.0
19/05:30pm 29.4 29.0 16.2 44 8.2 NE 13 24 7 13 1011.8 - 0.0
19/05:00pm 30.6 31.8 18.3 47 7.9 NE 9 15 5 8 1011.6 - 0.0
19/04:30pm 30.1 32.3 20.4 56 6.4 N 9 17 5 9 1011.5 - 0.0
19/04:00pm 30.0 31.5 19.7 54 6.7 N 11 17 6 9 1011.5 - 0.0
19/03:30pm 30.5 31.1 18.6 49 7.7 N 13 19 7 10 1011.3 - 0.0
19/03:00pm 32.0 32.3 17.8 42 9.1 ENE 13 20 7 11 1011.4 1011.3 0.0
19/02:30pm 32.0 30.3 13.7 33 11.1 ENE 15 20 8 11 1011.7 - 0.0
19/02:00pm 32.3 31.0 14.9 35 10.7 ENE 15 20 8 11 1012.2 - 0.0
19/01:30pm 32.0 30.7 13.7 33 11.1 ENE 13 20 7 11 1012.7 - 0.0
19/01:00pm 31.8 31.4 16.1 38 9.8 ENE 13 20 7 11 1013.3 - 0.0
19/12:30pm 30.4 29.8 15.7 41 9.1 ENE 13 26 7 14 1013.9 - 0.0
19/12:00pm 31.0 29.1 14.2 36 10.2 E 17 20 9 11 1014.5 1014.4 0.0
19/11:30am 29.7 28.3 13.5 37 9.7 E 13 20 7 11 1015.0 - 0.0
19/11:00am 29.2 27.7 14.2 40 9.0 E 15 20 8 11 1015.4 - 0.0
19/10:30am 28.7 28.5 16.6 48 7.5 ESE 13 20 7 11 1015.7 - 0.0
19/10:00am 29.0 28.5 15.9 45 8.1 ESE 13 20 7 11 1015.8 - 0.0
19/09:30am 28.5 27.9 16.7 48 7.4 ESE 15 20 8 11 1015.8 - 0.0
19/09:00am 26.2 27.6 18.6 63 4.8 SSE 9 13 5 7 1015.6 1015.5 0.0
19/08:30am 24.7 25.7 18.6 69 3.9 ESE 11 17 6 9 1015.6 - 0.0
19/08:00am 23.0 23.8 19.0 78 2.5 SE 13 19 7 10 1015.5 - 0.0
19/07:30am 21.6 22.8 19.0 85 1.6 SE 11 19 6 10 1015.2 - 0.0
19/07:00am 20.0 20.9 18.5 91 0.9 SE 11 15 6 8 1014.8 - 0.0
19/06:30am 18.7 20.9 17.4 92 0.8 E 2 9 1 5 1014.4 - 0.0
19/06:00am 18.7 20.8 17.2 91 0.9 E 2 6 1 3 1013.9 1013.8 0.0
19/05:30am 19.1 21.4 17.8 92 0.8 S 2 7 1 4 1013.6 - 0.0
19/05:00am 18.7 21.1 17.0 90 1.0 CALM 0 0 0 0 1013.3 - 0.0
19/04:30am 19.2 21.7 17.3 89 1.2 CALM 0 2 0 1 1013.0 - 0.0
19/04:00am 20.0 21.1 18.1 89 1.2 S 9 13 5 7 1012.9 - 0.0
19/03:30am 19.3 21.5 17.4 89 1.2 SE 2 7 1 4 1013.2 - 0.0
19/03:00am 19.7 22.3 17.5 87 1.3 CALM 0 0 0 0 1013.3 1013.2 0.0
19/02:30am 20.7 22.8 18.1 85 1.6 SSE 4 6 2 3 1013.5 - 0.0
19/02:00am 21.9 23.8 18.9 83 1.9 SSE 7 9 4 5 1014.0 - 0.0
19/01:30am 23.0 24.2 19.0 78 2.5 SSE 11 15 6 8 1014.3 - 0.0
19/01:00am 23.4 24.9 19.8 80 2.3 S 11 13 6 7 1014.5 - 0.0
19/12:30am 24.1 26.3 19.6 76 2.9 SE 7 11 4 6 1014.6 - 0.0
19/12:00am 24.6 26.7 20.1 76 2.9 ESE 9 13 5 7 1015.0 1014.9 0.0
 
Date/Time
CST
Temp
°C
App
Temp
°C
Dew
Point
Rel
Hum
%
Delta-T
°C
Wind Press
QNH
hPa
Press
MSL
hPa
Rain
since 9 am
mm
Dir
 
Spd
km/h
Gust
km/h
Spd
kts
Gust
kts
18/11:30pm 24.8 26.8 20.7 78 2.7 E 11 17 6 9 1015.3 - 0.0
18/11:00pm 24.4 27.9 22.1 87 1.5 E 7 11 4 6 1015.5 - 0.0
18/10:30pm 24.4 27.9 22.1 87 1.5 E 7 11 4 6 1015.4 - 0.0
18/10:00pm 24.0 27.0 21.3 85 1.8 ENE 7 11 4 6 1015.4 - 0.0
18/09:30pm 23.9 26.9 20.8 83 2.0 E 6 7 3 4 1015.3 - 0.0
18/09:00pm 23.9 26.7 20.4 81 2.3 E 6 7 3 4 1014.9 1014.8 0.0
18/08:30pm 23.7 26.5 19.6 78 2.6 NE 4 6 2 3 1014.3 - 0.0
18/08:00pm 25.2 28.9 20.0 73 3.4 CALM 0 0 0 0 1013.9 - 0.0
18/07:30pm 25.7 28.3 20.0 71 3.7 NNE 6 9 3 5 1013.7 - 0.0
18/07:00pm 26.2 28.5 19.8 68 4.2 NE 7 9 4 5 1013.3 - 0.0
18/06:30pm 27.0 29.2 19.6 64 4.8 NNE 7 11 4 6 1013.1 - 0.0
18/06:00pm 27.7 29.0 19.2 60 5.5 NE 11 15 6 8 1012.9 1012.8 0.0
18/05:30pm 28.3 29.7 19.5 59 5.7 NNE 11 20 6 11 1012.7 - 0.0
18/05:00pm 29.3 30.7 19.6 56 6.3 NNE 11 15 6 8 1012.4 - 0.0
18/04:30pm 29.8 31.1 19.2 53 6.9 N 11 17 6 9 1012.1 - 0.0
18/04:00pm 29.8 31.2 19.5 54 6.7 N 11 17 6 9 1012.1 - 0.0
18/03:30pm 29.9 31.1 19.9 55 6.6 N 13 19 7 10 1012.3 - 0.0
18/03:00pm 31.0 32.9 20.6 54 6.9 N 11 15 6 8 1012.7 1012.6 0.0
18/02:30pm 31.1 32.5 20.4 53 7.1 NNE 13 19 7 10 1013.2 - 0.0
18/02:00pm 30.8 31.7 19.2 50 7.6 NNE 13 20 7 11 1013.7 - 0.0
18/01:30pm 31.6 31.5 16.0 39 9.7 NE 11 20 6 11 1014.2 - 0.0
18/01:00pm 30.3 29.8 17.0 44 8.4 ENE 15 20 8 11 1014.8 - 0.0
18/12:30pm 30.6 30.9 18.7 49 7.7 E 15 20 8 11 1015.2 - 0.0
18/12:00pm 29.5 29.5 18.9 53 6.9 E 17 26 9 14 1015.7 1015.6 0.0
18/11:30am 28.3 29.2 19.2 57 5.9 E 13 22 7 12 1016.0 - 0.0
18/11:00am 28.4 30.2 21.2 65 4.8 E 13 22 7 12 1016.5 - 0.0
18/10:30am 27.4 28.5 21.2 69 4.1 E 17 26 9 14 1016.9 - 0.0
18/10:00am 26.9 27.3 20.7 69 4.1 ENE 19 24 10 13 1017.1 - 0.0
18/09:30am 26.2 27.0 20.7 71 3.6 E 17 28 9 15 1016.9 - 0.0
18/09:00am 26.0 27.4 21.0 74 3.3 ESE 15 24 8 13 1016.8 1016.7 0.0
18/08:30am 25.0 26.3 19.4 71 3.6 E 11 17 6 9 1016.5 - 0.0
18/08:00am 23.4 24.1 18.9 76 2.9 S 13 17 7 9 1015.7 - 0.0
18/07:30am 21.5 22.7 18.3 82 2.0 SSE 9 13 5 7 1015.4 - 0.0
18/07:00am 19.9 21.5 17.9 88 1.2 S 6 9 3 5 1014.7 - 0.0
18/06:30am 19.5 20.8 17.6 89 1.2 S 7 11 4 6 1014.3 - 0.0
18/06:00am 19.6 21.0 17.7 89 1.2 S 7 9 4 5 1013.9 1013.8 0.0
18/05:30am 19.9 21.4 18.0 89 1.2 SSW 7 11 4 6 1013.5 - 0.0
18/05:00am 19.9 22.7 18.0 89 1.2 CALM 0 4 0 2 1013.4 - 0.0
18/04:30am 20.3 22.9 18.4 89 1.2 S 2 6 1 3 1013.2 - 0.0
18/04:00am 20.7 23.4 18.6 88 1.3 SSE 2 7 1 4 1013.3 - 0.0
18/03:30am 21.3 23.4 18.9 86 1.5 S 6 9 3 5 1013.4 - 0.0
18/03:00am 23.0 25.5 19.8 82 2.1 ESE 6 11 3 6 1013.4 1013.3 0.0
18/02:30am 23.6 25.9 19.9 80 2.4 E 7 9 4 5 1013.6 - 0.0
18/02:00am 24.0 26.1 20.1 79 2.5 E 9 13 5 7 1013.8 - 0.0
18/01:30am 24.2 26.1 19.7 76 2.9 E 9 13 5 7 1014.2 - 0.0
18/01:00am 24.4 26.2 19.5 74 3.1 E 9 15 5 8 1014.4 - 0.0
18/12:30am 24.6 26.5 19.7 74 3.2 E 9 15 5 8 1014.6 - 0.0
18/12:00am 24.8 26.5 20.1 75 3.0 E 11 17 6 9 1014.6 1014.5 0.0
 
Date/Time
CST
Temp
°C
App
Temp
°C
Dew
Point
Rel
Hum
%
Delta-T
°C
Wind Press
QNH
hPa
Press
MSL
hPa
Rain
since 9 am
mm
Dir
 
Spd
km/h
Gust
km/h
Spd
kts
Gust
kts
17/11:30pm 24.8 27.0 20.5 77 2.8 E 9 17 5 9 1014.7 - 0.0
17/11:00pm 24.9 27.5 21.2 80 2.4 ENE 9 13 5 7 1014.9 - 0.0
17/10:30pm 25.1 27.9 21.6 81 2.3 E 9 13 5 7 1015.1 - 0.0
17/10:00pm 25.5 28.2 21.4 78 2.7 E 9 15 5 8 1015.1 - 0.0
17/09:30pm 25.8 28.6 21.5 77 2.9 E 9 15 5 8 1015.0 - 0.0
17/09:00pm 25.9 28.6 21.3 76 3.0 ENE 9 13 5 7 1014.8 1014.7 0.0
17/08:30pm 26.0 28.0 20.8 73 3.4 ENE 11 19 6 10 1014.5 - 0.0
17/08:00pm 26.1 28.3 21.1 74 3.3 ENE 11 17 6 9 1014.0 - 0.0
17/07:30pm 26.1 28.6 20.2 70 3.8 NE 7 11 4 6 1013.5 - 0.0
17/07:00pm 26.4 28.6 20.3 69 4.0 NE 9 17 5 9 1013.1 - 0.0
17/06:30pm 26.7 28.8 20.1 67 4.3 NE 9 15 5 8 1012.7 - 0.0
17/06:00pm 27.1 29.1 19.9 64 4.7 NNE 9 17 5 9 1012.2 1012.1 0.0
17/05:30pm 27.8 28.1 18.8 58 5.8 NE 15 22 8 12 1011.8 - 0.0
17/05:00pm 28.6 28.6 19.0 56 6.2 NE 17 26 9 14 1011.5 - 0.0
17/04:30pm 28.3 28.7 19.8 60 5.5 NNE 17 24 9 13 1011.4 - 0.0
17/04:00pm 28.7 29.3 20.2 60 5.6 N 17 26 9 14 1011.2 - 0.0
17/03:30pm 29.0 30.4 20.4 59 5.7 N 13 24 7 13 1011.2 - 0.0

Other Formats:

Comma delimited format used in spreadsheet applications
http://www.bom.gov.au/fwo/IDD60801/IDD60801.94140.axf

JavaScript Object Notation format (JSON) in row-major order
http://www.bom.gov.au/fwo/IDD60801/IDD60801.94140.json